createdAt,value
2022-11-09T00:00:40.887Z,71.43
2022-11-09T00:03:07.626Z,72.56
2022-11-09T00:05:34.283Z,68.72
2022-11-09T00:08:00.857Z,71.39
2022-11-09T00:10:27.503Z,73.56
2022-11-09T00:12:54.069Z,70.83
2022-11-09T00:15:20.705Z,73.98
2022-11-09T00:17:47.257Z,75.63
2022-11-09T00:20:13.818Z,75.22
2022-11-09T00:22:40.381Z,86.68
2022-11-09T00:25:07.303Z,82.30
2022-11-09T00:27:33.855Z,80.91
2022-11-09T00:30:00.492Z,74.68
2022-11-09T00:32:28.062Z,76.12
2022-11-09T00:34:54.768Z,85.71
2022-11-09T00:37:21.383Z,83.73
2022-11-09T00:39:47.992Z,80.48
2022-11-09T00:42:14.548Z,79.06
2022-11-09T00:44:41.142Z,77.75
2022-11-09T00:47:07.718Z,79.69
2022-11-09T00:49:34.277Z,74.56
2022-11-09T00:52:00.847Z,80.12
2022-11-09T00:54:27.422Z,81.42
2022-11-09T00:56:53.966Z,83.71
2022-11-09T00:59:20.586Z,76.65
2022-11-09T01:01:47.180Z,83.92
2022-11-09T01:04:13.730Z,76.61
2022-11-09T01:06:40.317Z,80.04
2022-11-09T01:09:06.886Z,80.44
2022-11-09T01:11:33.453Z,82.06
2022-11-09T01:14:00.632Z,78.64
2022-11-09T01:16:27.372Z,83.11
2022-11-09T01:18:56.664Z,80.91
2022-11-09T01:21:23.297Z,85.43
2022-11-09T01:23:49.851Z,86.80
2022-11-09T01:26:16.688Z,87.18
2022-11-09T01:28:43.421Z,90.12
2022-11-09T01:31:12.014Z,84.63
2022-11-09T01:33:38.610Z,81.87
2022-11-09T01:36:09.769Z,81.83
2022-11-09T01:38:37.120Z,79.57
2022-11-09T01:41:04.020Z,76.43
2022-11-09T01:43:30.689Z,77.23
2022-11-09T01:46:03.470Z,75.37
2022-11-09T01:48:35.164Z,83.79
2022-11-09T01:51:07.651Z,81.90
2022-11-09T01:53:35.097Z,81.27
2022-11-09T01:56:02.435Z,81.21
2022-11-09T01:58:30.968Z,75.10
2022-11-09T02:00:57.646Z,84.16
2022-11-09T02:03:35.441Z,81.43
2022-11-09T02:06:02.650Z,80.29
2022-11-09T02:08:29.207Z,79.39
2022-11-09T02:10:55.744Z,79.10
2022-11-09T02:13:22.679Z,75.51
2022-11-09T02:15:50.366Z,76.91
2022-11-09T02:18:17.278Z,76.45
2022-11-09T02:20:44.221Z,78.95
2022-11-09T02:23:10.774Z,78.76
2022-11-09T02:25:37.318Z,82.31
2022-11-09T02:28:03.985Z,78.85
2022-11-09T02:30:30.600Z,74.38
2022-11-09T02:32:57.217Z,82.46
2022-11-09T02:35:23.780Z,78.34
2022-11-09T02:37:50.561Z,86.58
2022-11-09T02:40:18.469Z,85.31
2022-11-09T02:42:45.049Z,86.38
2022-11-09T02:45:11.621Z,79.43
2022-11-09T02:47:38.199Z,85.14
2022-11-09T02:50:05.004Z,83.89
2022-11-09T02:52:31.560Z,86.27
2022-11-09T02:54:58.128Z,85.09
2022-11-09T02:57:24.686Z,86.13
2022-11-09T02:59:51.324Z,88.17
2022-11-09T03:02:17.952Z,88.03
2022-11-09T03:04:44.565Z,85.27
2022-11-09T03:07:11.155Z,87.52
2022-11-09T03:09:37.787Z,83.60
2022-11-09T03:12:24.365Z,93.95
2022-11-09T03:14:50.928Z,91.74
2022-11-09T03:17:18.575Z,90.95
2022-11-09T03:19:45.320Z,92.76
2022-11-09T03:22:11.873Z,89.14
2022-11-09T03:24:38.678Z,91.26
2022-11-09T03:27:05.232Z,89.39
2022-11-09T03:29:31.792Z,90.81
2022-11-09T03:31:58.412Z,88.00
2022-11-09T03:34:24.991Z,83.65
2022-11-09T03:36:51.530Z,81.32
2022-11-09T03:39:18.069Z,85.11
2022-11-09T03:41:44.641Z,85.66
2022-11-09T03:44:11.196Z,83.81
2022-11-09T03:46:37.791Z,84.98
2022-11-09T03:49:04.351Z,86.44
2022-11-09T03:51:30.928Z,84.11
2022-11-09T03:53:57.505Z,83.62
2022-11-09T03:56:24.057Z,85.19
2022-11-09T03:58:50.612Z,82.90
2022-11-09T04:01:17.304Z,83.07
2022-11-09T04:03:43.935Z,78.05
2022-11-09T04:06:10.511Z,79.93
2022-11-09T04:08:37.055Z,83.87
2022-11-09T04:11:03.606Z,79.84
2022-11-09T04:13:30.160Z,79.15
2022-11-09T04:15:56.734Z,81.26
2022-11-09T04:18:23.315Z,82.43
2022-11-09T04:20:49.872Z,83.50
2022-11-09T04:23:16.686Z,83.45
2022-11-09T04:25:43.560Z,83.23
2022-11-09T04:28:11.551Z,83.82
2022-11-09T04:30:38.293Z,86.40
2022-11-09T04:33:04.950Z,88.14
2022-11-09T04:35:32.726Z,87.68
2022-11-09T04:38:00.130Z,86.77
2022-11-09T04:40:27.222Z,88.83
2022-11-09T04:42:53.805Z,87.61
2022-11-09T04:45:20.777Z,88.53
2022-11-09T04:47:47.528Z,88.88
2022-11-09T04:50:14.134Z,89.79
2022-11-09T04:52:40.758Z,89.47
2022-11-09T04:55:07.761Z,90.74
2022-11-09T04:57:34.506Z,88.13
2022-11-09T05:00:01.080Z,88.29
2022-11-09T05:02:27.705Z,89.46
2022-11-09T05:04:54.270Z,90.31
2022-11-09T05:07:20.877Z,91.22
2022-11-09T05:09:47.449Z,91.91
2022-11-09T05:12:14.013Z,92.70
2022-11-09T05:14:40.563Z,90.60
2022-11-09T05:17:08.890Z,92.52
2022-11-09T05:19:35.486Z,92.65
2022-11-09T05:22:21.970Z,90.66
2022-11-09T05:24:48.587Z,89.46
2022-11-09T05:27:15.136Z,92.00
2022-11-09T05:29:41.692Z,89.54
2022-11-09T05:32:08.326Z,88.73
2022-11-09T05:34:34.885Z,87.76
2022-11-09T05:37:03.694Z,88.07
2022-11-09T05:39:30.473Z,87.69
2022-11-09T05:41:57.037Z,88.84
2022-11-09T05:44:23.652Z,89.72
2022-11-09T05:46:50.234Z,91.19
2022-11-09T05:49:16.816Z,88.86
2022-11-09T05:51:43.396Z,93.03
2022-11-09T05:54:10.039Z,90.46
2022-11-09T05:56:36.631Z,89.29
2022-11-09T05:59:03.232Z,85.28
2022-11-09T06:01:29.834Z,86.16
2022-11-09T06:03:56.448Z,86.62
2022-11-09T06:06:23.001Z,86.86
2022-11-09T06:08:50.853Z,86.68
2022-11-09T06:11:23.548Z,88.00
2022-11-09T06:13:50.884Z,83.89
2022-11-09T06:16:17.459Z,89.17
2022-11-09T06:18:44.060Z,90.77
2022-11-09T06:21:10.626Z,87.97
2022-11-09T06:23:37.277Z,88.33
2022-11-09T06:26:09.767Z,92.94
2022-11-09T06:28:36.894Z,88.51
2022-11-09T06:31:04.318Z,83.83
2022-11-09T06:33:31.384Z,86.41
2022-11-09T06:35:58.216Z,87.05
2022-11-09T06:38:26.593Z,84.09
2022-11-09T06:40:53.560Z,86.80
2022-11-09T06:43:20.423Z,86.24
2022-11-09T06:45:47.286Z,83.91
2022-11-09T06:48:13.893Z,81.11
2022-11-09T06:50:40.438Z,85.68
2022-11-09T06:53:08.167Z,88.12
2022-11-09T06:55:35.107Z,82.66
2022-11-09T06:58:05.756Z,85.84
2022-11-09T07:00:32.358Z,86.64
2022-11-09T07:02:58.958Z,84.16
2022-11-09T07:05:25.549Z,85.17
2022-11-09T07:07:52.147Z,85.25
2022-11-09T07:10:18.756Z,86.56
2022-11-09T07:12:45.325Z,81.98
2022-11-09T07:15:12.044Z,82.44
2022-11-09T07:17:39.927Z,81.69
2022-11-09T07:20:07.316Z,80.48
2022-11-09T07:22:39.366Z,82.93
2022-11-09T07:25:07.560Z,84.18
2022-11-09T07:27:34.209Z,83.74
2022-11-09T07:30:00.787Z,83.10
2022-11-09T07:32:53.822Z,86.74
2022-11-09T07:35:13.988Z,83.23
2022-11-09T07:37:40.529Z,86.32
2022-11-09T07:40:07.508Z,87.38
2022-11-09T07:42:34.148Z,88.18
2022-11-09T07:45:00.795Z,86.89
2022-11-09T07:47:27.442Z,88.80
2022-11-09T07:49:54.118Z,87.45
2022-11-09T07:52:20.807Z,85.74
2022-11-09T07:54:51.993Z,84.34
2022-11-09T07:57:19.025Z,88.91
2022-11-09T07:59:45.668Z,87.28
2022-11-09T08:02:13.080Z,92.21
2022-11-09T08:04:39.848Z,90.68
2022-11-09T08:07:06.538Z,88.49
2022-11-09T08:09:33.370Z,89.51
2022-11-09T08:12:00.037Z,83.43
2022-11-09T08:14:26.719Z,83.39
2022-11-09T08:16:53.362Z,82.97
2022-11-09T08:19:20.037Z,81.98
2022-11-09T08:21:46.773Z,80.87
2022-11-09T08:24:13.431Z,81.15
2022-11-09T08:26:40.079Z,85.77
2022-11-09T08:29:06.725Z,88.56
2022-11-09T08:31:33.362Z,86.90
2022-11-09T08:34:00.045Z,88.60
2022-11-09T08:36:28.004Z,87.50
2022-11-09T08:38:54.672Z,90.66
2022-11-09T08:41:21.381Z,89.18
2022-11-09T08:43:48.050Z,86.45
2022-11-09T08:46:14.760Z,82.18
2022-11-09T08:48:41.433Z,86.34
2022-11-09T08:51:08.070Z,86.74
2022-11-09T08:53:34.745Z,87.21
2022-11-09T08:56:01.487Z,87.28
2022-11-09T08:58:28.142Z,87.85
2022-11-09T09:00:54.831Z,86.97
2022-11-09T09:03:21.547Z,87.70
2022-11-09T09:05:48.283Z,90.31
2022-11-09T09:08:15.865Z,91.22
2022-11-09T09:10:42.891Z,86.00
2022-11-09T09:13:09.533Z,83.87
2022-11-09T09:15:36.211Z,84.61
2022-11-09T09:18:03.352Z,80.30
2022-11-09T09:20:30.100Z,84.70
2022-11-09T09:23:00.014Z,82.40
2022-11-09T09:25:27.078Z,84.30
2022-11-09T09:27:53.780Z,81.81
2022-11-09T09:30:20.482Z,81.93
2022-11-09T09:32:47.156Z,79.65
2022-11-09T09:35:13.915Z,79.99
2022-11-09T09:37:40.586Z,79.31
2022-11-09T09:40:07.510Z,78.41
2022-11-09T09:42:40.907Z,83.41
2022-11-09T09:45:14.811Z,82.32
2022-11-09T09:47:59.265Z,83.74
2022-11-09T09:50:37.821Z,87.61
2022-11-09T09:55:55.282Z,85.97
2022-11-09T09:58:29.136Z,91.13
2022-11-09T10:01:00.225Z,89.11
2022-11-09T10:03:26.977Z,87.93
2022-11-09T10:05:56.697Z,87.21
2022-11-09T10:08:42.198Z,83.41
2022-11-09T10:11:14.735Z,86.31
2022-11-09T10:13:43.939Z,84.25
2022-11-09T10:16:20.106Z,82.38
2022-11-09T10:18:56.369Z,81.57
2022-11-09T10:21:41.955Z,79.13
2022-11-09T10:24:16.087Z,77.88
2022-11-09T10:27:03.059Z,77.94
2022-11-09T10:29:36.327Z,78.54
2022-11-09T10:32:22.237Z,80.11
2022-11-09T10:35:08.068Z,73.36
2022-11-09T10:37:34.756Z,82.12
2022-11-09T10:40:03.939Z,82.50
2022-11-09T10:42:30.701Z,83.48
2022-11-09T10:45:11.790Z,86.61
2022-11-09T10:47:48.290Z,85.12
2022-11-09T10:50:33.870Z,84.20
2022-11-09T10:53:19.760Z,85.55
2022-11-09T10:55:58.379Z,81.39
2022-11-09T10:58:37.245Z,82.14
2022-11-09T11:01:23.054Z,79.57
2022-11-09T11:03:50.721Z,75.82
2022-11-09T11:06:18.402Z,73.73
2022-11-09T11:09:03.829Z,78.34
2022-11-09T11:11:34.373Z,76.04
2022-11-09T11:14:15.872Z,72.28
2022-11-09T11:16:45.573Z,78.38
2022-11-09T11:19:27.555Z,80.34
2022-11-09T11:22:12.610Z,77.98
2022-11-09T11:24:43.492Z,78.79
2022-11-09T11:27:28.903Z,83.95
2022-11-09T11:30:15.948Z,82.21
2022-11-09T11:32:48.809Z,81.11
2022-11-09T11:35:18.299Z,80.09
2022-11-09T11:38:02.134Z,80.26
2022-11-09T11:40:51.927Z,81.69
2022-11-09T11:43:30.622Z,82.42
2022-11-09T11:45:57.287Z,84.41
2022-11-09T11:48:26.982Z,81.60
2022-11-09T11:51:00.057Z,82.94
2022-11-09T11:53:26.671Z,79.87
2022-11-09T11:56:11.943Z,79.49
2022-11-09T11:59:04.590Z,79.84
2022-11-09T12:01:33.975Z,76.85
2022-11-09T12:04:19.445Z,75.61
2022-11-09T12:06:49.054Z,78.81
2022-11-09T12:09:28.353Z,77.98
2022-11-09T12:12:04.152Z,77.16
2022-11-09T12:14:46.687Z,75.24
2022-11-09T12:17:19.393Z,78.71
2022-11-09T12:19:50.201Z,81.66
2022-11-09T12:22:24.307Z,77.99
2022-11-09T12:24:59.819Z,80.54
2022-11-09T12:27:39.898Z,80.34
2022-11-09T12:30:10.173Z,81.95
2022-11-09T12:32:40.562Z,85.12
2022-11-09T12:35:18.502Z,83.93
2022-11-09T12:37:47.192Z,88.30
2022-11-09T12:40:20.535Z,89.55
2022-11-09T12:42:59.493Z,89.23
2022-11-09T12:45:36.130Z,86.44
2022-11-09T12:48:05.396Z,86.37
2022-11-09T12:50:32.457Z,84.36
2022-11-09T12:52:59.624Z,80.68
2022-11-09T12:55:32.841Z,84.08
2022-11-09T12:58:01.052Z,86.09
2022-11-09T13:00:33.996Z,88.02
2022-11-09T13:03:01.128Z,88.79
2022-11-09T13:05:31.901Z,86.83
2022-11-09T13:08:02.073Z,79.92
2022-11-09T13:10:32.471Z,77.33
2022-11-09T13:13:19.778Z,80.23
2022-11-09T13:16:05.371Z,83.69
2022-11-09T13:18:35.640Z,86.10
2022-11-09T13:21:21.194Z,86.43
2022-11-09T13:24:00.635Z,82.48
2022-11-09T13:26:31.027Z,78.49
2022-11-09T13:29:21.123Z,80.49
2022-11-09T13:32:01.203Z,77.62
2022-11-09T13:34:40.827Z,84.05
2022-11-09T13:37:26.369Z,83.57
2022-11-09T13:39:53.030Z,87.28
2022-11-09T13:42:32.970Z,86.32
2022-11-09T13:45:18.459Z,85.72
2022-11-09T13:47:51.334Z,89.24
2022-11-09T13:50:19.078Z,86.09
2022-11-09T13:52:50.545Z,83.59
2022-11-09T13:55:21.964Z,88.10
2022-11-09T13:57:48.596Z,85.44
2022-11-09T14:00:19.082Z,86.08
2022-11-09T14:02:59.423Z,85.35
2022-11-09T14:05:30.080Z,84.68
2022-11-09T14:07:56.774Z,85.47
2022-11-09T14:10:35.981Z,88.99
2022-11-09T14:13:15.024Z,84.87
2022-11-09T14:15:47.115Z,85.26
2022-11-09T14:18:27.592Z,86.64
2022-11-09T14:21:13.082Z,85.20
2022-11-09T14:23:39.823Z,84.42
2022-11-09T14:26:09.123Z,84.67
2022-11-09T14:28:37.404Z,89.46
2022-11-09T14:31:04.117Z,89.23
2022-11-09T14:33:34.219Z,84.37
2022-11-09T14:36:01.503Z,86.71
2022-11-09T14:38:29.175Z,85.84
2022-11-09T14:40:55.944Z,85.30
2022-11-09T14:43:29.875Z,84.09
2022-11-09T14:45:58.046Z,89.39
2022-11-09T14:48:25.356Z,88.61
2022-11-09T14:50:52.833Z,91.59
2022-11-09T14:53:22.637Z,93.19
2022-11-09T14:55:49.693Z,90.55
2022-11-09T14:58:16.324Z,90.36
2022-11-09T15:00:45.924Z,85.87
2022-11-09T15:03:29.010Z,86.97
2022-11-09T15:06:11.883Z,87.74
2022-11-09T15:08:40.517Z,88.38
2022-11-09T15:11:07.229Z,87.98
2022-11-09T15:13:35.170Z,87.36
2022-11-09T15:16:01.885Z,89.37
2022-11-09T15:18:33.454Z,87.86
2022-11-09T15:21:12.240Z,88.84
2022-11-09T15:23:40.206Z,92.76
2022-11-09T15:26:11.787Z,93.57
2022-11-09T15:28:45.784Z,89.60
2022-11-09T15:31:15.769Z,87.80
2022-11-09T15:34:00.938Z,89.60
2022-11-09T15:36:29.116Z,90.04
2022-11-09T15:39:14.406Z,85.76
2022-11-09T15:41:41.102Z,90.52
2022-11-09T15:44:08.042Z,91.27
2022-11-09T15:46:36.374Z,90.00
2022-11-09T15:49:23.254Z,92.18
2022-11-09T15:51:49.898Z,94.26
2022-11-09T15:54:16.606Z,92.77
2022-11-09T15:56:43.394Z,90.16
2022-11-09T15:59:20.478Z,88.84
2022-11-09T16:01:47.664Z,89.59
2022-11-09T16:04:14.305Z,88.28
2022-11-09T16:06:46.156Z,86.54
2022-11-09T16:09:13.310Z,84.81
2022-11-09T16:11:39.966Z,94.49
2022-11-09T16:14:07.466Z,91.09
2022-11-09T16:16:34.138Z,94.56
2022-11-09T16:19:00.794Z,89.61
2022-11-09T16:21:27.438Z,90.21
2022-11-09T16:23:58.302Z,88.75
2022-11-09T16:26:25.431Z,87.32
2022-11-09T16:28:52.061Z,87.00
2022-11-09T16:31:25.249Z,85.40
2022-11-09T16:33:56.632Z,84.30
2022-11-09T16:36:23.664Z,87.26
2022-11-09T16:38:51.148Z,86.28
2022-11-09T16:41:17.789Z,84.66
2022-11-09T16:43:44.729Z,87.14
2022-11-09T16:46:11.583Z,85.00
2022-11-09T16:48:38.232Z,82.37
2022-11-09T16:51:04.904Z,84.03
2022-11-09T16:53:31.587Z,85.22
2022-11-09T16:55:58.304Z,84.57
2022-11-09T16:58:24.983Z,84.71
2022-11-09T17:03:38.929Z,83.72
2022-11-09T17:06:05.796Z,83.58
2022-11-09T17:08:32.506Z,81.17
2022-11-09T17:10:59.151Z,82.36
2022-11-09T17:13:25.777Z,81.09
2022-11-09T17:15:54.841Z,82.95
2022-11-09T17:18:21.677Z,84.29
2022-11-09T17:20:50.453Z,86.08
2022-11-09T17:23:18.916Z,85.48
2022-11-09T17:25:58.846Z,88.09
2022-11-09T17:28:25.811Z,85.64
2022-11-09T17:30:52.506Z,88.60
2022-11-09T17:33:19.299Z,87.19
2022-11-09T17:35:45.946Z,87.13
2022-11-09T17:38:12.629Z,87.23
2022-11-09T17:40:39.326Z,87.13
2022-11-09T17:43:06.014Z,86.68
2022-11-09T17:45:34.650Z,87.66
2022-11-09T17:48:01.905Z,87.55
2022-11-09T17:50:28.556Z,93.80
2022-11-09T17:52:55.195Z,94.09
2022-11-09T17:55:21.866Z,93.33
2022-11-09T17:57:48.818Z,96.21
2022-11-09T18:00:15.649Z,95.69
2022-11-09T18:02:42.322Z,93.61
2022-11-09T18:05:11.076Z,93.51
2022-11-09T18:07:37.743Z,93.49
2022-11-09T18:10:04.597Z,92.55
2022-11-09T18:12:31.258Z,93.33
2022-11-09T18:14:57.911Z,99.94
2022-11-09T18:17:24.588Z,98.37
2022-11-09T18:19:51.221Z,99.43
2022-11-09T18:22:17.884Z,100.00
2022-11-09T18:24:44.567Z,100.00
2022-11-09T18:27:11.190Z,100.00
2022-11-09T18:29:37.830Z,100.00
2022-11-09T18:32:04.607Z,100.00
2022-11-09T18:34:31.245Z,100.00
2022-11-09T18:36:57.911Z,100.00
2022-11-09T18:39:26.585Z,100.00
2022-11-09T18:41:54.690Z,100.00
2022-11-09T18:44:21.364Z,100.00
2022-11-09T18:46:48.045Z,100.00
2022-11-09T18:49:14.756Z,100.00
2022-11-09T18:51:41.435Z,98.68
2022-11-09T18:54:08.074Z,96.72
2022-11-09T18:56:34.805Z,98.11
2022-11-09T18:59:01.506Z,97.43
2022-11-09T19:01:28.707Z,97.30
2022-11-09T19:03:59.329Z,99.22
2022-11-09T19:06:26.221Z,98.83
2022-11-09T19:09:11.497Z,100.00
2022-11-09T19:11:38.206Z,99.56
2022-11-09T19:14:04.867Z,100.00
2022-11-09T19:16:31.568Z,100.00
2022-11-09T19:18:58.381Z,100.00
2022-11-09T19:21:25.059Z,100.00
2022-11-09T19:23:51.717Z,98.34
2022-11-09T19:26:18.423Z,100.00
2022-11-09T19:28:45.039Z,100.00
2022-11-09T19:31:12.542Z,97.47
2022-11-09T19:33:39.209Z,96.89
2022-11-09T19:36:29.270Z,97.86
2022-11-09T19:38:52.641Z,95.49
2022-11-09T19:41:19.359Z,93.97
2022-11-09T19:43:49.674Z,96.88
2022-11-09T19:46:16.461Z,91.34
2022-11-09T19:48:46.709Z,91.12
2022-11-09T19:51:13.889Z,93.48
2022-11-09T19:53:42.563Z,94.92
2022-11-09T19:56:09.783Z,93.64
2022-11-09T19:58:36.469Z,92.03
2022-11-09T20:01:07.216Z,94.97
2022-11-09T20:03:34.212Z,95.54
2022-11-09T20:06:01.065Z,96.59
2022-11-09T20:08:27.941Z,93.79
2022-11-09T20:10:54.640Z,95.61
2022-11-09T20:13:22.085Z,94.54
2022-11-09T20:15:48.834Z,94.82
2022-11-09T20:18:15.588Z,95.72
2022-11-09T20:20:42.204Z,96.55
2022-11-09T20:23:08.820Z,91.75
2022-11-09T20:25:36.408Z,89.37
2022-11-09T20:28:03.085Z,89.20
2022-11-09T20:30:29.997Z,91.40
2022-11-09T20:32:56.729Z,92.11
2022-11-09T20:35:23.374Z,89.03
2022-11-09T20:37:49.989Z,86.76
2022-11-09T20:40:16.783Z,85.41
2022-11-09T20:42:43.802Z,92.78
2022-11-09T20:45:10.663Z,93.99
2022-11-09T20:48:03.378Z,92.63
2022-11-09T20:50:23.947Z,89.59
2022-11-09T20:52:51.326Z,88.93
2022-11-09T20:55:18.007Z,88.74
2022-11-09T20:57:44.703Z,93.98
2022-11-09T21:00:11.881Z,90.76
2022-11-09T21:02:38.612Z,94.90
2022-11-09T21:05:05.395Z,98.33
2022-11-09T21:07:32.018Z,98.69
2022-11-09T21:09:58.657Z,97.03
2022-11-09T21:12:25.305Z,97.99
2022-11-09T21:14:53.116Z,97.71
2022-11-09T21:17:20.044Z,100.00
2022-11-09T21:19:46.736Z,100.00
2022-11-09T21:22:13.483Z,99.04
2022-11-09T21:25:06.100Z,97.24
2022-11-09T21:27:51.140Z,95.41
2022-11-09T21:30:19.384Z,96.02
2022-11-09T21:32:46.026Z,95.33
2022-11-09T21:35:12.671Z,98.58
2022-11-09T21:37:39.303Z,100.00
2022-11-09T21:40:06.282Z,98.01
2022-11-09T21:42:32.973Z,100.00
2022-11-09T21:44:59.609Z,99.03
2022-11-09T21:47:26.303Z,94.76
2022-11-09T21:49:52.967Z,93.08
2022-11-09T21:52:19.614Z,94.56
2022-11-09T21:54:46.237Z,93.42
2022-11-09T21:57:12.951Z,97.12
2022-11-09T21:59:39.629Z,97.95
2022-11-09T22:02:06.407Z,99.82
2022-11-09T22:04:33.102Z,100.00
2022-11-09T22:06:59.851Z,100.00
2022-11-09T22:09:29.646Z,96.28
2022-11-09T22:12:21.022Z,94.03
2022-11-09T22:15:05.973Z,96.08
2022-11-09T22:17:32.609Z,100.00
2022-11-09T22:20:17.597Z,100.00
2022-11-09T22:22:45.417Z,97.92
2022-11-09T22:25:12.067Z,100.00
2022-11-09T22:27:38.756Z,99.81
2022-11-09T22:30:05.746Z,98.92
2022-11-09T22:32:32.427Z,100.00
2022-11-09T22:34:59.096Z,97.37
2022-11-09T22:37:25.735Z,96.92
2022-11-09T22:39:52.414Z,99.57
2022-11-09T22:51:42.981Z,94.42
2022-11-09T22:54:09.629Z,88.99
2022-11-09T22:56:36.277Z,86.09
2022-11-09T22:59:02.961Z,82.95
2022-11-09T23:01:29.683Z,80.92
2022-11-09T23:03:56.383Z,81.22
2022-11-09T23:06:23.993Z,81.10
2022-11-09T23:08:50.725Z,76.74
2022-11-09T23:11:21.294Z,78.83
2022-11-09T23:13:54.581Z,78.55
2022-11-09T23:16:21.796Z,78.98
2022-11-09T23:18:54.738Z,78.29
2022-11-09T23:21:22.325Z,76.73
2022-11-09T23:23:49.070Z,76.60
2022-11-09T23:26:15.719Z,74.73
2022-11-09T23:28:42.413Z,74.91
2022-11-09T23:31:10.700Z,74.94
2022-11-09T23:33:37.416Z,71.33
2022-11-09T23:36:04.633Z,73.93
2022-11-09T23:38:34.781Z,74.80
2022-11-09T23:41:02.125Z,73.58
2022-11-09T23:43:28.794Z,73.09
2022-11-09T23:45:55.583Z,70.60
2022-11-09T23:48:22.491Z,72.03
2022-11-09T23:50:49.245Z,75.48
2022-11-09T23:53:15.928Z,75.59
2022-11-09T23:55:42.650Z,76.65
2022-11-09T23:58:09.389Z,79.55
